Haslet, TX

11:37 PM CST on March 06, 2015 (GMT -0600)
Fort Worth Meacham International | Change Station
CLOSE
Current Station
Airport
Location: Fort Worth,
Elevation: 705 ft
Nearby Weather Stations

Elev 705 ft 32.82 °N, 97.36 °W | Updated 44 minutes ago

Clear
Clear
39 °F
Feels Like 34 °F
N
7
Wind Variable Wind from South

Today
High -- | Low -- °F
--% Chance of Precip.
Yesterday
High -- | Low -- °F
Precip. -- in
6:51 AM 6:30 PM
Full, 98% visible
Pressure 30.46 in
Visibility 10.0 miles
Clouds Clear
Windchill 34 °F
Dew Point 28 °F
Humidity 65%
Rainfall 0.00 in
Snow Depth Not available.
UV 0 out of 12
Pollen 7.20 out of 12
Air Quality Not available.
Flu Activity Not available.
METAR KFTW 070453Z 18006KT 10SM CLR 04/M02 A3046 RMK AO2 SLP315 T00391022

More Conditions Fewer Conditions

Pressure 30.46 in
Visibility 10.0 miles
Clouds Clear
Windchill 34 °F
Dew Point 28 °F
Humidity 65%
Rainfall 0.00 in
Snow Depth Not available.
UV 0 out of 12
Pollen 7.20 out of 12
Air Quality Not available.
Flu Activity Not available.
METAR KFTW 070453Z 18006KT 10SM CLR 04/M02 A3046 RMK AO2 SLP315 T00391022

More Conditions Fewer Conditions

10-Day Weather Forecast

Almanac

Astronomy

Mar. 06, 2015 Rise Set
Actual Time
Civil Twilight
Nautical Twilight
Astronomical Twilight
Moon
Length of Visible Light
Length of Day
Tomorrow will be .
, % of the Moon is Illuminated

Today's Extremes

State Highs State Lows

Community

WunderPhotos

Upload Photos

1,803,551 photos uploaded!

WunderBlogs® & News

Nearby

Air Quality

  Air Quality AQ Index Pollutant
Not available.

Snow Depth

Station Depth Elevation

Earthquake Activity

City Distance Mag. Time & Date
Minimum magnitude displayed is 2.5.

Coastal Water Temperatures

Place Temperature

Nearby Weather Stations